Terminal Aerodrome Forecast
Issued by NWS Kansas City/Pleasant Hill, MO

Home | Current Version | Previous Version | Text Only | Print | Product List | Glossary On
Versions: 1 2 3 4 5 6 7 8 9 10 11 12 13 14 15 16 17
000
FTUS43 KEAX 221120
TAFMCI
TAF
KMCI 221120Z 2212/2312 06006KT 6SM -FZRA OVC008
     FM221400 07006KT P6SM VCSH OVC008
     FM221600 09006KT P6SM OVC008
     FM222100 10006KT 4SM -RA OVC008
     FM230000 VRB05KT 3SM -RA OVC003
     FM230600 VRB03KT P6SM OVC003=

USA.gov is the U.S. government's official web portal to all federal, state and local government web resources and services.